sensor_id;sensor_type;location;lat;lon;timestamp;temperature;humidity
2050;DHT22;8478;49.208;8.806;2022-11-15T00:00:48;12.60;99.90
2050;DHT22;8478;49.208;8.806;2022-11-15T00:03:15;12.60;99.90
2050;DHT22;8478;49.208;8.806;2022-11-15T00:05:41;12.60;99.90
2050;DHT22;8478;49.208;8.806;2022-11-15T00:08:07;12.60;99.90
2050;DHT22;8478;49.208;8.806;2022-11-15T00:10:33;12.60;99.90
2050;DHT22;8478;49.208;8.806;2022-11-15T00:12:58;12.60;99.90
2050;DHT22;8478;49.208;8.806;2022-11-15T00:15:24;12.60;99.90
2050;DHT22;8478;49.208;8.806;2022-11-15T00:17:49;12.60;99.90
2050;DHT22;8478;49.208;8.806;2022-11-15T00:20:16;12.60;99.90
2050;DHT22;8478;49.208;8.806;2022-11-15T00:22:42;12.50;99.90
2050;DHT22;8478;49.208;8.806;2022-11-15T00:25:08;12.50;99.90
2050;DHT22;8478;49.208;8.806;2022-11-15T00:27:34;12.50;99.90
2050;DHT22;8478;49.208;8.806;2022-11-15T00:30:00;12.60;99.90
2050;DHT22;8478;49.208;8.806;2022-11-15T00:32:26;12.50;99.90
2050;DHT22;8478;49.208;8.806;2022-11-15T00:34:56;12.50;99.90
2050;DHT22;8478;49.208;8.806;2022-11-15T00:37:21;12.50;99.90
2050;DHT22;8478;49.208;8.806;2022-11-15T00:39:47;12.50;99.90
2050;DHT22;8478;49.208;8.806;2022-11-15T00:42:12;12.50;99.90
2050;DHT22;8478;49.208;8.806;2022-11-15T00:44:38;12.50;99.90
2050;DHT22;8478;49.208;8.806;2022-11-15T00:47:04;12.50;99.90
2050;DHT22;8478;49.208;8.806;2022-11-15T00:49:29;12.50;99.90
2050;DHT22;8478;49.208;8.806;2022-11-15T00:51:55;12.50;99.90
2050;DHT22;8478;49.208;8.806;2022-11-15T00:54:20;12.50;99.90
2050;DHT22;8478;49.208;8.806;2022-11-15T00:56:46;12.50;99.90
2050;DHT22;8478;49.208;8.806;2022-11-15T00:59:12;12.50;99.90
2050;DHT22;8478;49.208;8.806;2022-11-15T01:01:37;12.50;99.90
2050;DHT22;8478;49.208;8.806;2022-11-15T01:04:03;12.50;99.90
2050;DHT22;8478;49.208;8.806;2022-11-15T01:06:29;12.50;99.90
2050;DHT22;8478;49.208;8.806;2022-11-15T01:08:54;12.50;99.90
2050;DHT22;8478;49.208;8.806;2022-11-15T01:11:20;12.50;99.90
2050;DHT22;8478;49.208;8.806;2022-11-15T01:13:46;12.50;99.90
2050;DHT22;8478;49.208;8.806;2022-11-15T01:16:16;12.50;99.90
2050;DHT22;8478;49.208;8.806;2022-11-15T01:18:43;12.50;99.90
2050;DHT22;8478;49.208;8.806;2022-11-15T01:21:16;12.50;99.90
2050;DHT22;8478;49.208;8.806;2022-11-15T01:23:43;12.50;99.90
2050;DHT22;8478;49.208;8.806;2022-11-15T01:26:12;12.50;99.90
2050;DHT22;8478;49.208;8.806;2022-11-15T01:28:40;12.50;99.90
2050;DHT22;8478;49.208;8.806;2022-11-15T01:31:15;12.50;99.90
2050;DHT22;8478;49.208;8.806;2022-11-15T01:33:41;12.50;99.90
2050;DHT22;8478;49.208;8.806;2022-11-15T01:36:10;12.50;99.90
2050;DHT22;8478;49.208;8.806;2022-11-15T01:38:37;12.50;99.90
2050;DHT22;8478;49.208;8.806;2022-11-15T01:41:03;12.50;99.90
2050;DHT22;8478;49.208;8.806;2022-11-15T01:43:34;12.50;99.90
2050;DHT22;8478;49.208;8.806;2022-11-15T01:46:23;12.50;99.90
2050;DHT22;8478;49.208;8.806;2022-11-15T01:48:52;12.50;99.90
2050;DHT22;8478;49.208;8.806;2022-11-15T01:51:21;12.50;99.90
2050;DHT22;8478;49.208;8.806;2022-11-15T01:53:50;12.50;99.90
2050;DHT22;8478;49.208;8.806;2022-11-15T01:56:24;12.50;99.90
2050;DHT22;8478;49.208;8.806;2022-11-15T01:58:51;12.50;99.90
2050;DHT22;8478;49.208;8.806;2022-11-15T02:01:18;12.50;99.90
2050;DHT22;8478;49.208;8.806;2022-11-15T02:04:22;12.50;99.90
2050;DHT22;8478;49.208;8.806;2022-11-15T02:06:49;12.50;99.90
2050;DHT22;8478;49.208;8.806;2022-11-15T02:09:16;12.50;99.90
2050;DHT22;8478;49.208;8.806;2022-11-15T02:11:43;12.50;99.90
2050;DHT22;8478;49.208;8.806;2022-11-15T02:14:10;12.50;99.90
2050;DHT22;8478;49.208;8.806;2022-11-15T02:31:05;12.50;99.90
2050;DHT22;8478;49.208;8.806;2022-11-15T02:33:45;12.50;99.90
2050;DHT22;8478;49.208;8.806;2022-11-15T02:36:34;12.50;99.90
2050;DHT22;8478;49.208;8.806;2022-11-15T02:42:03;12.50;99.90
2050;DHT22;8478;49.208;8.806;2022-11-15T02:44:39;12.50;99.90
2050;DHT22;8478;49.208;8.806;2022-11-15T02:47:10;12.50;99.90
2050;DHT22;8478;49.208;8.806;2022-11-15T02:49:48;12.50;99.90
2050;DHT22;8478;49.208;8.806;2022-11-15T02:52:17;12.50;99.90
2050;DHT22;8478;49.208;8.806;2022-11-15T02:54:43;12.50;99.90
2050;DHT22;8478;49.208;8.806;2022-11-15T02:57:17;12.50;99.90
2050;DHT22;8478;49.208;8.806;2022-11-15T03:02:55;12.50;99.90
2050;DHT22;8478;49.208;8.806;2022-11-15T03:11:03;12.50;99.90
2050;DHT22;8478;49.208;8.806;2022-11-15T03:13:58;12.50;99.90
2050;DHT22;8478;49.208;8.806;2022-11-15T03:16:42;12.50;99.90
2050;DHT22;8478;49.208;8.806;2022-11-15T03:19:13;12.50;99.90
2050;DHT22;8478;49.208;8.806;2022-11-15T03:21:40;12.50;99.90
2050;DHT22;8478;49.208;8.806;2022-11-15T03:24:07;12.50;99.90
2050;DHT22;8478;49.208;8.806;2022-11-15T03:26:35;12.50;99.90
2050;DHT22;8478;49.208;8.806;2022-11-15T03:29:18;12.50;99.90
2050;DHT22;8478;49.208;8.806;2022-11-15T03:31:49;12.50;99.90
2050;DHT22;8478;49.208;8.806;2022-11-15T03:36:50;12.50;99.90
2050;DHT22;8478;49.208;8.806;2022-11-15T03:39:16;12.50;99.90
2050;DHT22;8478;49.208;8.806;2022-11-15T03:41:49;12.50;99.90
2050;DHT22;8478;49.208;8.806;2022-11-15T03:44:34;12.50;99.90
2050;DHT22;8478;49.208;8.806;2022-11-15T03:47:14;12.50;99.90
2050;DHT22;8478;49.208;8.806;2022-11-15T03:49:50;12.50;99.90
2050;DHT22;8478;49.208;8.806;2022-11-15T03:52:20;12.50;99.90
2050;DHT22;8478;49.208;8.806;2022-11-15T03:54:54;12.50;99.90
2050;DHT22;8478;49.208;8.806;2022-11-15T03:57:21;12.50;99.90
2050;DHT22;8478;49.208;8.806;2022-11-15T03:59:46;12.50;99.90
2050;DHT22;8478;49.208;8.806;2022-11-15T04:02:12;12.50;99.90
2050;DHT22;8478;49.208;8.806;2022-11-15T04:04:38;12.50;99.90
2050;DHT22;8478;49.208;8.806;2022-11-15T04:07:04;12.50;99.90
2050;DHT22;8478;49.208;8.806;2022-11-15T04:09:29;12.50;99.90
2050;DHT22;8478;49.208;8.806;2022-11-15T04:11:55;12.50;99.90
2050;DHT22;8478;49.208;8.806;2022-11-15T04:14:20;12.50;99.90
2050;DHT22;8478;49.208;8.806;2022-11-15T04:16:46;12.50;99.90
2050;DHT22;8478;49.208;8.806;2022-11-15T04:19:12;12.50;99.90
2050;DHT22;8478;49.208;8.806;2022-11-15T04:21:56;12.50;99.90
2050;DHT22;8478;49.208;8.806;2022-11-15T04:24:40;12.50;99.90
2050;DHT22;8478;49.208;8.806;2022-11-15T04:27:05;12.50;99.90
2050;DHT22;8478;49.208;8.806;2022-11-15T04:29:31;12.50;99.90
2050;DHT22;8478;49.208;8.806;2022-11-15T04:32:04;12.50;99.90
2050;DHT22;8478;49.208;8.806;2022-11-15T04:34:30;12.50;99.90
2050;DHT22;8478;49.208;8.806;2022-11-15T04:36:56;12.50;99.90
2050;DHT22;8478;49.208;8.806;2022-11-15T04:39:37;12.50;99.90
2050;DHT22;8478;49.208;8.806;2022-11-15T04:42:03;12.50;99.90
2050;DHT22;8478;49.208;8.806;2022-11-15T04:44:29;12.50;99.90
2050;DHT22;8478;49.208;8.806;2022-11-15T04:46:54;12.50;99.90
2050;DHT22;8478;49.208;8.806;2022-11-15T04:49:20;12.50;99.90
2050;DHT22;8478;49.208;8.806;2022-11-15T04:51:46;12.50;99.90
2050;DHT22;8478;49.208;8.806;2022-11-15T04:54:11;12.50;99.90
2050;DHT22;8478;49.208;8.806;2022-11-15T04:56:37;12.50;99.90
2050;DHT22;8478;49.208;8.806;2022-11-15T04:59:03;12.50;99.90
2050;DHT22;8478;49.208;8.806;2022-11-15T05:01:28;12.50;99.90
2050;DHT22;8478;49.208;8.806;2022-11-15T05:03:54;12.50;99.90
2050;DHT22;8478;49.208;8.806;2022-11-15T05:06:38;12.50;99.90
2050;DHT22;8478;49.208;8.806;2022-11-15T05:09:04;12.50;99.90
2050;DHT22;8478;49.208;8.806;2022-11-15T05:11:30;12.50;99.90
2050;DHT22;8478;49.208;8.806;2022-11-15T05:13:55;12.50;99.90
2050;DHT22;8478;49.208;8.806;2022-11-15T05:16:21;12.50;99.90
2050;DHT22;8478;49.208;8.806;2022-11-15T05:18:49;12.50;99.90
2050;DHT22;8478;49.208;8.806;2022-11-15T05:21:15;12.50;99.90
2050;DHT22;8478;49.208;8.806;2022-11-15T05:23:41;12.50;99.90
2050;DHT22;8478;49.208;8.806;2022-11-15T05:26:07;12.50;99.90
2050;DHT22;8478;49.208;8.806;2022-11-15T05:28:34;12.50;99.90
2050;DHT22;8478;49.208;8.806;2022-11-15T05:31:10;12.50;99.90
2050;DHT22;8478;49.208;8.806;2022-11-15T05:33:38;12.50;99.90
2050;DHT22;8478;49.208;8.806;2022-11-15T05:36:09;12.50;99.90
2050;DHT22;8478;49.208;8.806;2022-11-15T05:38:35;12.50;99.90
2050;DHT22;8478;49.208;8.806;2022-11-15T05:41:02;12.50;99.90
2050;DHT22;8478;49.208;8.806;2022-11-15T05:43:31;12.50;99.90
2050;DHT22;8478;49.208;8.806;2022-11-15T05:45:59;12.50;99.90
2050;DHT22;8478;49.208;8.806;2022-11-15T05:48:25;12.50;99.90
2050;DHT22;8478;49.208;8.806;2022-11-15T05:50:51;12.50;99.90
2050;DHT22;8478;49.208;8.806;2022-11-15T05:53:19;12.50;99.90
2050;DHT22;8478;49.208;8.806;2022-11-15T05:55:47;12.50;99.90
2050;DHT22;8478;49.208;8.806;2022-11-15T05:58:13;12.50;99.90
2050;DHT22;8478;49.208;8.806;2022-11-15T06:00:39;12.50;99.90
2050;DHT22;8478;49.208;8.806;2022-11-15T06:03:05;12.50;99.90
2050;DHT22;8478;49.208;8.806;2022-11-15T06:05:30;12.50;99.90
2050;DHT22;8478;49.208;8.806;2022-11-15T06:07:59;12.50;99.90
2050;DHT22;8478;49.208;8.806;2022-11-15T06:10:25;12.50;99.90
2050;DHT22;8478;49.208;8.806;2022-11-15T06:12:59;12.50;99.90
2050;DHT22;8478;49.208;8.806;2022-11-15T06:15:25;12.50;99.90
2050;DHT22;8478;49.208;8.806;2022-11-15T06:17:50;12.50;99.90
2050;DHT22;8478;49.208;8.806;2022-11-15T06:20:17;12.50;99.90
2050;DHT22;8478;49.208;8.806;2022-11-15T06:22:42;12.50;99.90
2050;DHT22;8478;49.208;8.806;2022-11-15T06:25:08;12.50;99.90
2050;DHT22;8478;49.208;8.806;2022-11-15T06:27:34;12.50;99.90
2050;DHT22;8478;49.208;8.806;2022-11-15T06:29:59;12.50;99.90
2050;DHT22;8478;49.208;8.806;2022-11-15T06:32:25;12.50;99.90
2050;DHT22;8478;49.208;8.806;2022-11-15T06:34:51;12.50;99.90
2050;DHT22;8478;49.208;8.806;2022-11-15T06:37:16;12.50;99.90
2050;DHT22;8478;49.208;8.806;2022-11-15T06:39:42;12.50;99.90
2050;DHT22;8478;49.208;8.806;2022-11-15T06:42:08;12.50;99.90
2050;DHT22;8478;49.208;8.806;2022-11-15T06:44:34;12.50;99.90
2050;DHT22;8478;49.208;8.806;2022-11-15T06:47:00;12.50;99.90
2050;DHT22;8478;49.208;8.806;2022-11-15T06:49:25;12.50;99.90
2050;DHT22;8478;49.208;8.806;2022-11-15T06:51:51;12.50;99.90
2050;DHT22;8478;49.208;8.806;2022-11-15T06:54:16;12.50;99.90
2050;DHT22;8478;49.208;8.806;2022-11-15T06:56:42;12.50;99.90
2050;DHT22;8478;49.208;8.806;2022-11-15T06:59:08;12.50;99.90
2050;DHT22;8478;49.208;8.806;2022-11-15T07:01:33;12.50;99.90
2050;DHT22;8478;49.208;8.806;2022-11-15T07:03:59;12.50;99.90
2050;DHT22;8478;49.208;8.806;2022-11-15T07:06:25;12.50;99.90
2050;DHT22;8478;49.208;8.806;2022-11-15T07:08:50;12.50;99.90
2050;DHT22;8478;49.208;8.806;2022-11-15T07:11:16;12.50;99.90
2050;DHT22;8478;49.208;8.806;2022-11-15T07:13:42;12.50;99.90
2050;DHT22;8478;49.208;8.806;2022-11-15T07:16:09;12.50;99.90
2050;DHT22;8478;49.208;8.806;2022-11-15T07:18:39;12.50;99.90
2050;DHT22;8478;49.208;8.806;2022-11-15T07:21:07;12.50;99.90
2050;DHT22;8478;49.208;8.806;2022-11-15T07:23:36;12.50;99.90
2050;DHT22;8478;49.208;8.806;2022-11-15T07:26:02;12.50;99.90
2050;DHT22;8478;49.208;8.806;2022-11-15T07:28:28;12.50;99.90
2050;DHT22;8478;49.208;8.806;2022-11-15T07:30:54;12.50;99.90
2050;DHT22;8478;49.208;8.806;2022-11-15T07:33:20;12.50;99.90
2050;DHT22;8478;49.208;8.806;2022-11-15T07:35:46;12.50;99.90
2050;DHT22;8478;49.208;8.806;2022-11-15T07:38:14;12.50;99.90
2050;DHT22;8478;49.208;8.806;2022-11-15T07:40:40;12.50;99.90
2050;DHT22;8478;49.208;8.806;2022-11-15T07:43:07;12.50;99.90
2050;DHT22;8478;49.208;8.806;2022-11-15T07:45:33;12.50;99.90
2050;DHT22;8478;49.208;8.806;2022-11-15T07:48:00;12.50;99.90
2050;DHT22;8478;49.208;8.806;2022-11-15T07:50:26;12.50;99.90
2050;DHT22;8478;49.208;8.806;2022-11-15T07:52:55;12.50;99.90
2050;DHT22;8478;49.208;8.806;2022-11-15T07:55:22;12.50;99.90
2050;DHT22;8478;49.208;8.806;2022-11-15T07:57:48;12.50;99.90
2050;DHT22;8478;49.208;8.806;2022-11-15T08:00:14;12.50;99.90
2050;DHT22;8478;49.208;8.806;2022-11-15T08:02:40;12.50;99.90
2050;DHT22;8478;49.208;8.806;2022-11-15T08:05:06;12.50;99.90
2050;DHT22;8478;49.208;8.806;2022-11-15T08:07:32;12.50;99.90
2050;DHT22;8478;49.208;8.806;2022-11-15T08:09:58;12.50;99.90
2050;DHT22;8478;49.208;8.806;2022-11-15T08:12:27;12.50;99.90
2050;DHT22;8478;49.208;8.806;2022-11-15T08:14:54;12.50;99.90
2050;DHT22;8478;49.208;8.806;2022-11-15T08:17:22;12.50;99.90
2050;DHT22;8478;49.208;8.806;2022-11-15T08:19:47;12.50;99.90
2050;DHT22;8478;49.208;8.806;2022-11-15T08:22:13;12.50;99.90
2050;DHT22;8478;49.208;8.806;2022-11-15T08:24:39;12.50;99.90
2050;DHT22;8478;49.208;8.806;2022-11-15T08:27:05;12.50;99.90
2050;DHT22;8478;49.208;8.806;2022-11-15T08:29:48;12.50;99.90
2050;DHT22;8478;49.208;8.806;2022-11-15T08:32:13;12.50;99.90
2050;DHT22;8478;49.208;8.806;2022-11-15T08:34:39;12.50;99.90
2050;DHT22;8478;49.208;8.806;2022-11-15T08:37:05;12.50;99.90
2050;DHT22;8478;49.208;8.806;2022-11-15T08:39:31;12.50;99.90
2050;DHT22;8478;49.208;8.806;2022-11-15T08:41:56;12.50;99.90
2050;DHT22;8478;49.208;8.806;2022-11-15T08:44:22;12.50;99.90
2050;DHT22;8478;49.208;8.806;2022-11-15T08:46:49;12.50;99.90
2050;DHT22;8478;49.208;8.806;2022-11-15T08:49:15;12.50;99.90
2050;DHT22;8478;49.208;8.806;2022-11-15T08:51:41;12.50;99.90
2050;DHT22;8478;49.208;8.806;2022-11-15T08:54:07;12.50;99.90
2050;DHT22;8478;49.208;8.806;2022-11-15T08:56:32;12.50;99.90
2050;DHT22;8478;49.208;8.806;2022-11-15T08:58:58;12.50;99.90
2050;DHT22;8478;49.208;8.806;2022-11-15T09:01:23;12.60;99.90
2050;DHT22;8478;49.208;8.806;2022-11-15T09:03:49;12.60;99.90
2050;DHT22;8478;49.208;8.806;2022-11-15T09:06:15;12.60;99.90
2050;DHT22;8478;49.208;8.806;2022-11-15T09:08:40;12.60;99.90
2050;DHT22;8478;49.208;8.806;2022-11-15T09:11:09;12.60;99.90
2050;DHT22;8478;49.208;8.806;2022-11-15T09:13:35;12.60;99.90
2050;DHT22;8478;49.208;8.806;2022-11-15T09:16:03;12.60;99.90
2050;DHT22;8478;49.208;8.806;2022-11-15T09:18:29;12.60;99.90
2050;DHT22;8478;49.208;8.806;2022-11-15T09:20:56;12.60;99.90
2050;DHT22;8478;49.208;8.806;2022-11-15T09:23:23;12.60;99.90
2050;DHT22;8478;49.208;8.806;2022-11-15T09:25:48;12.60;99.90
2050;DHT22;8478;49.208;8.806;2022-11-15T09:28:14;12.60;99.90
2050;DHT22;8478;49.208;8.806;2022-11-15T09:30:40;12.60;99.90
2050;DHT22;8478;49.208;8.806;2022-11-15T09:33:10;12.60;99.90
2050;DHT22;8478;49.208;8.806;2022-11-15T09:35:36;12.60;99.90
2050;DHT22;8478;49.208;8.806;2022-11-15T09:38:02;12.60;99.90
2050;DHT22;8478;49.208;8.806;2022-11-15T09:40:30;12.60;99.90
2050;DHT22;8478;49.208;8.806;2022-11-15T09:43:29;12.60;99.90
2050;DHT22;8478;49.208;8.806;2022-11-15T09:51:37;12.60;99.90
2050;DHT22;8478;49.208;8.806;2022-11-15T09:54:35;12.60;99.90
2050;DHT22;8478;49.208;8.806;2022-11-15T09:57:13;12.60;99.90
2050;DHT22;8478;49.208;8.806;2022-11-15T10:05:24;12.60;99.90
2050;DHT22;8478;49.208;8.806;2022-11-15T10:08:20;12.60;99.90
2050;DHT22;8478;49.208;8.806;2022-11-15T10:10:55;12.60;99.90
2050;DHT22;8478;49.208;8.806;2022-11-15T10:13:26;12.60;99.90
2050;DHT22;8478;49.208;8.806;2022-11-15T10:16:01;12.60;99.90
2050;DHT22;8478;49.208;8.806;2022-11-15T10:18:57;12.60;99.90
2050;DHT22;8478;49.208;8.806;2022-11-15T10:21:37;12.60;99.90
2050;DHT22;8478;49.208;8.806;2022-11-15T10:24:12;12.60;99.90
2050;DHT22;8478;49.208;8.806;2022-11-15T10:26:39;12.60;99.90
2050;DHT22;8478;49.208;8.806;2022-11-15T10:29:10;12.60;99.90
2050;DHT22;8478;49.208;8.806;2022-11-15T10:31:39;12.60;99.90
2050;DHT22;8478;49.208;8.806;2022-11-15T10:34:12;12.70;99.90
2050;DHT22;8478;49.208;8.806;2022-11-15T10:36:38;12.70;99.90
2050;DHT22;8478;49.208;8.806;2022-11-15T10:39:12;12.70;99.90
2050;DHT22;8478;49.208;8.806;2022-11-15T10:41:40;12.70;99.90
2050;DHT22;8478;49.208;8.806;2022-11-15T10:46:36;12.70;99.90
2050;DHT22;8478;49.208;8.806;2022-11-15T10:49:22;12.70;99.90
2050;DHT22;8478;49.208;8.806;2022-11-15T10:51:53;12.70;99.90
2050;DHT22;8478;49.208;8.806;2022-11-15T10:54:44;12.70;99.90
2050;DHT22;8478;49.208;8.806;2022-11-15T10:59:46;12.70;99.90
2050;DHT22;8478;49.208;8.806;2022-11-15T11:02:37;12.70;99.90
2050;DHT22;8478;49.208;8.806;2022-11-15T11:07:57;12.70;99.90
2050;DHT22;8478;49.208;8.806;2022-11-15T11:10:24;12.70;99.90
2050;DHT22;8478;49.208;8.806;2022-11-15T11:12:49;12.70;99.90
2050;DHT22;8478;49.208;8.806;2022-11-15T11:15:16;12.70;99.90
2050;DHT22;8478;49.208;8.806;2022-11-15T11:20:30;12.70;99.90
2050;DHT22;8478;49.208;8.806;2022-11-15T11:23:11;12.70;99.90
2050;DHT22;8478;49.208;8.806;2022-11-15T11:30:54;12.70;99.90
2050;DHT22;8478;49.208;8.806;2022-11-15T11:33:24;12.70;99.90
2050;DHT22;8478;49.208;8.806;2022-11-15T11:35:58;12.70;99.90
2050;DHT22;8478;49.208;8.806;2022-11-15T11:41:29;12.80;99.90
2050;DHT22;8478;49.208;8.806;2022-11-15T11:44:24;12.80;99.90
2050;DHT22;8478;49.208;8.806;2022-11-15T11:52:24;12.80;99.90
2050;DHT22;8478;49.208;8.806;2022-11-15T12:00:21;12.80;99.90
2050;DHT22;8478;49.208;8.806;2022-11-15T12:03:02;12.80;99.90
2050;DHT22;8478;49.208;8.806;2022-11-15T12:06:01;12.80;99.90
2050;DHT22;8478;49.208;8.806;2022-11-15T12:14:09;12.80;99.90
2050;DHT22;8478;49.208;8.806;2022-11-15T12:16:38;12.80;99.90
2050;DHT22;8478;49.208;8.806;2022-11-15T12:19:07;12.80;99.90
2050;DHT22;8478;49.208;8.806;2022-11-15T12:22:11;12.80;99.90
2050;DHT22;8478;49.208;8.806;2022-11-15T12:24:43;12.80;99.90
2050;DHT22;8478;49.208;8.806;2022-11-15T12:29:58;12.80;99.90
2050;DHT22;8478;49.208;8.806;2022-11-15T12:32:34;12.80;99.90
2050;DHT22;8478;49.208;8.806;2022-11-15T12:35:03;12.80;99.90
2050;DHT22;8478;49.208;8.806;2022-11-15T13:07:04;12.90;99.90
2050;DHT22;8478;49.208;8.806;2022-11-15T13:12:02;12.90;99.90
2050;DHT22;8478;49.208;8.806;2022-11-15T13:14:47;12.90;99.90
2050;DHT22;8478;49.208;8.806;2022-11-15T13:19:52;12.90;99.90
2050;DHT22;8478;49.208;8.806;2022-11-15T13:22:18;12.90;99.90
2050;DHT22;8478;49.208;8.806;2022-11-15T13:25:04;12.90;99.90
2050;DHT22;8478;49.208;8.806;2022-11-15T13:27:40;12.90;99.90
2050;DHT22;8478;49.208;8.806;2022-11-15T13:30:19;12.90;99.90
2050;DHT22;8478;49.208;8.806;2022-11-15T13:32:45;12.90;99.90
2050;DHT22;8478;49.208;8.806;2022-11-15T13:35:20;12.90;99.90
2050;DHT22;8478;49.208;8.806;2022-11-15T13:37:46;12.90;99.90
2050;DHT22;8478;49.208;8.806;2022-11-15T13:42:46;13.00;99.90
2050;DHT22;8478;49.208;8.806;2022-11-15T13:45:15;13.00;99.90
2050;DHT22;8478;49.208;8.806;2022-11-15T13:47:41;13.00;99.90
2050;DHT22;8478;49.208;8.806;2022-11-15T13:50:11;13.00;99.90
2050;DHT22;8478;49.208;8.806;2022-11-15T13:52:39;13.00;99.90
2050;DHT22;8478;49.208;8.806;2022-11-15T13:55:20;13.00;99.90
2050;DHT22;8478;49.208;8.806;2022-11-15T13:57:51;13.00;99.90
2050;DHT22;8478;49.208;8.806;2022-11-15T14:00:37;13.00;99.90
2050;DHT22;8478;49.208;8.806;2022-11-15T14:03:15;13.00;99.90
2050;DHT22;8478;49.208;8.806;2022-11-15T14:05:42;13.00;99.90
2050;DHT22;8478;49.208;8.806;2022-11-15T14:08:23;13.00;99.90
2050;DHT22;8478;49.208;8.806;2022-11-15T14:11:10;13.00;99.90
2050;DHT22;8478;49.208;8.806;2022-11-15T14:13:38;13.00;99.90
2050;DHT22;8478;49.208;8.806;2022-11-15T14:16:19;13.00;99.90
2050;DHT22;8478;49.208;8.806;2022-11-15T14:18:48;13.00;99.90
2050;DHT22;8478;49.208;8.806;2022-11-15T14:21:15;13.00;99.90
2050;DHT22;8478;49.208;8.806;2022-11-15T14:23:41;13.00;99.90
2050;DHT22;8478;49.208;8.806;2022-11-15T14:26:31;13.00;99.90
2050;DHT22;8478;49.208;8.806;2022-11-15T14:28:57;13.00;99.90
2050;DHT22;8478;49.208;8.806;2022-11-15T14:31:43;13.00;99.90
2050;DHT22;8478;49.208;8.806;2022-11-15T14:34:11;13.00;99.90
2050;DHT22;8478;49.208;8.806;2022-11-15T14:36:37;13.00;99.90
2050;DHT22;8478;49.208;8.806;2022-11-15T14:39:02;13.00;99.90
2050;DHT22;8478;49.208;8.806;2022-11-15T14:41:34;13.00;99.90
2050;DHT22;8478;49.208;8.806;2022-11-15T14:44:03;13.00;99.90
2050;DHT22;8478;49.208;8.806;2022-11-15T14:46:30;13.00;99.90
2050;DHT22;8478;49.208;8.806;2022-11-15T14:48:55;13.00;99.90
2050;DHT22;8478;49.208;8.806;2022-11-15T14:51:21;13.00;99.90
2050;DHT22;8478;49.208;8.806;2022-11-15T14:53:47;13.00;99.90
2050;DHT22;8478;49.208;8.806;2022-11-15T14:56:14;13.00;99.90
2050;DHT22;8478;49.208;8.806;2022-11-15T14:58:42;13.00;99.90
2050;DHT22;8478;49.208;8.806;2022-11-15T15:01:20;13.00;99.90
2050;DHT22;8478;49.208;8.806;2022-11-15T15:03:46;13.00;99.90
2050;DHT22;8478;49.208;8.806;2022-11-15T15:06:12;13.10;99.90
2050;DHT22;8478;49.208;8.806;2022-11-15T15:08:40;13.00;99.90
2050;DHT22;8478;49.208;8.806;2022-11-15T15:11:23;13.10;99.90
2050;DHT22;8478;49.208;8.806;2022-11-15T15:13:50;13.10;99.90
2050;DHT22;8478;49.208;8.806;2022-11-15T15:16:16;13.10;99.90
2050;DHT22;8478;49.208;8.806;2022-11-15T15:18:41;13.10;99.90
2050;DHT22;8478;49.208;8.806;2022-11-15T15:21:24;13.10;99.90
2050;DHT22;8478;49.208;8.806;2022-11-15T15:23:51;13.10;99.90
2050;DHT22;8478;49.208;8.806;2022-11-15T15:26:19;13.10;99.90
2050;DHT22;8478;49.208;8.806;2022-11-15T15:28:44;13.10;99.90
2050;DHT22;8478;49.208;8.806;2022-11-15T15:31:10;13.10;99.90
2050;DHT22;8478;49.208;8.806;2022-11-15T15:33:36;13.10;99.90
2050;DHT22;8478;49.208;8.806;2022-11-15T15:36:02;13.10;99.90
2050;DHT22;8478;49.208;8.806;2022-11-15T15:38:28;13.10;99.90
2050;DHT22;8478;49.208;8.806;2022-11-15T15:40:54;13.10;99.90
2050;DHT22;8478;49.208;8.806;2022-11-15T15:43:20;13.10;99.90
2050;DHT22;8478;49.208;8.806;2022-11-15T15:45:46;13.10;99.90
2050;DHT22;8478;49.208;8.806;2022-11-15T15:48:16;13.10;99.90
2050;DHT22;8478;49.208;8.806;2022-11-15T15:50:42;13.10;99.90
2050;DHT22;8478;49.208;8.806;2022-11-15T15:53:10;13.10;99.90
2050;DHT22;8478;49.208;8.806;2022-11-15T15:55:36;13.10;99.90
2050;DHT22;8478;49.208;8.806;2022-11-15T15:58:03;13.10;99.90
2050;DHT22;8478;49.208;8.806;2022-11-15T16:00:29;13.10;99.90
2050;DHT22;8478;49.208;8.806;2022-11-15T16:02:58;13.10;99.90
2050;DHT22;8478;49.208;8.806;2022-11-15T16:05:24;13.10;99.90
2050;DHT22;8478;49.208;8.806;2022-11-15T16:07:50;13.10;99.90
2050;DHT22;8478;49.208;8.806;2022-11-15T16:10:27;13.10;99.90
2050;DHT22;8478;49.208;8.806;2022-11-15T16:12:54;13.10;99.90
2050;DHT22;8478;49.208;8.806;2022-11-15T16:15:22;13.10;99.90
2050;DHT22;8478;49.208;8.806;2022-11-15T16:17:55;13.10;99.90
2050;DHT22;8478;49.208;8.806;2022-11-15T16:22:52;13.10;99.90
2050;DHT22;8478;49.208;8.806;2022-11-15T16:25:17;13.10;99.90
2050;DHT22;8478;49.208;8.806;2022-11-15T16:27:43;13.10;99.90
2050;DHT22;8478;49.208;8.806;2022-11-15T16:30:18;13.10;99.90
2050;DHT22;8478;49.208;8.806;2022-11-15T16:32:44;13.10;99.90
2050;DHT22;8478;49.208;8.806;2022-11-15T16:35:11;13.20;99.90
2050;DHT22;8478;49.208;8.806;2022-11-15T16:37:40;13.10;99.90
2050;DHT22;8478;49.208;8.806;2022-11-15T16:40:27;13.10;99.90
2050;DHT22;8478;49.208;8.806;2022-11-15T16:42:53;13.20;99.90
2050;DHT22;8478;49.208;8.806;2022-11-15T16:45:21;13.10;99.90
2050;DHT22;8478;49.208;8.806;2022-11-15T16:47:47;13.20;99.90
2050;DHT22;8478;49.208;8.806;2022-11-15T16:50:33;13.20;99.90
2050;DHT22;8478;49.208;8.806;2022-11-15T16:53:05;13.20;99.90
2050;DHT22;8478;49.208;8.806;2022-11-15T16:55:31;13.20;99.90
2050;DHT22;8478;49.208;8.806;2022-11-15T16:57:57;13.20;99.90
2050;DHT22;8478;49.208;8.806;2022-11-15T17:00:23;13.20;99.90
2050;DHT22;8478;49.208;8.806;2022-11-15T17:02:50;13.20;99.90
2050;DHT22;8478;49.208;8.806;2022-11-15T17:05:18;13.20;99.90
2050;DHT22;8478;49.208;8.806;2022-11-15T17:07:46;13.20;99.90
2050;DHT22;8478;49.208;8.806;2022-11-15T17:10:14;13.20;99.90
2050;DHT22;8478;49.208;8.806;2022-11-15T17:12:40;13.20;99.90
2050;DHT22;8478;49.208;8.806;2022-11-15T17:15:06;13.20;99.90
2050;DHT22;8478;49.208;8.806;2022-11-15T17:17:32;13.20;99.90
2050;DHT22;8478;49.208;8.806;2022-11-15T17:19:57;13.20;99.90
2050;DHT22;8478;49.208;8.806;2022-11-15T17:22:24;13.20;99.90
2050;DHT22;8478;49.208;8.806;2022-11-15T17:24:49;13.20;99.90
2050;DHT22;8478;49.208;8.806;2022-11-15T17:27:15;13.20;99.90
2050;DHT22;8478;49.208;8.806;2022-11-15T17:29:41;13.20;99.90
2050;DHT22;8478;49.208;8.806;2022-11-15T17:32:07;13.20;99.90
2050;DHT22;8478;49.208;8.806;2022-11-15T17:34:33;13.20;99.90
2050;DHT22;8478;49.208;8.806;2022-11-15T17:36:59;13.20;99.90
2050;DHT22;8478;49.208;8.806;2022-11-15T17:39:25;13.20;99.90
2050;DHT22;8478;49.208;8.806;2022-11-15T17:41:50;13.20;99.90
2050;DHT22;8478;49.208;8.806;2022-11-15T17:44:16;13.20;99.90
2050;DHT22;8478;49.208;8.806;2022-11-15T17:46:42;13.20;99.90
2050;DHT22;8478;49.208;8.806;2022-11-15T17:49:08;13.20;99.90
2050;DHT22;8478;49.208;8.806;2022-11-15T17:51:34;13.20;99.90
2050;DHT22;8478;49.208;8.806;2022-11-15T17:54:00;13.20;99.90
2050;DHT22;8478;49.208;8.806;2022-11-15T17:56:27;13.20;99.90
2050;DHT22;8478;49.208;8.806;2022-11-15T17:58:56;13.20;99.90
2050;DHT22;8478;49.208;8.806;2022-11-15T18:01:25;13.20;99.90
2050;DHT22;8478;49.208;8.806;2022-11-15T18:03:52;13.20;99.90
2050;DHT22;8478;49.208;8.806;2022-11-15T18:06:19;13.20;99.90
2050;DHT22;8478;49.208;8.806;2022-11-15T18:08:46;13.20;99.90
2050;DHT22;8478;49.208;8.806;2022-11-15T18:11:15;13.20;99.90
2050;DHT22;8478;49.208;8.806;2022-11-15T18:13:44;13.20;99.90